Time;durP1;ratioP1;P1;durP2;ratioP2;P2;SDS_P1;SDS_P2;PMS_P1;PMS_P2;Temp;Humidity;BMP_temperature;BMP_pressure;BME280_temperature;BME280_humidity;BME280_pressure;Samples;Min_cycle;Max_cycle;Signal;HPM_P1;HPM_P2
2023/10/10 00:00:27;;;;;;;;;;;;;;;;;;5093346;28;19935;-60
2023/10/10 00:02:52;;;;;;;;;;;;;;;;;;5094426;28;20010;-60
2023/10/10 00:05:18;;;;;;;;;;;;;;;;;;5093315;28;20011;-60
2023/10/10 00:07:44;;;;;;;;;;;;;;;;;;5094362;28;19924;-61
2023/10/10 00:10:13;;;;;;;;;;;;;;;;;;5093999;28;19926;-61
2023/10/10 00:12:39;;;;;;;;;;;;;;;;;;5094231;28;19971;-61
2023/10/10 00:15:05;;;;;;;;;;;;;;;;;;5093976;28;19951;-61
2023/10/10 00:17:34;;;;;;;;;;;;;;;;;;5093982;28;20324;-61
2023/10/10 00:20:06;;;;;;;;;;;;;;;;;;5094187;28;19928;-61
2023/10/10 00:22:36;;;;;;;;;;;;;;;;;;5093937;28;20389;-61
2023/10/10 00:25:12;;;;;;;;;;;;;;;;;;5093881;28;19930;-60
2023/10/10 00:27:39;;;;;;;;;;;;;;;;;;5075700;28;20468;-61
2023/10/10 00:30:06;;;;;;;;;;;;;;;;;;5093912;28;19920;-61
2023/10/10 00:32:35;;;;;;;;;;;;;;;;;;5094034;28;19928;-61
2023/10/10 00:35:02;;;;;;;;;;;;;;;;;;5093760;28;19969;-62
2023/10/10 00:37:34;;;;;;;;;;;;;;;;;;5075388;28;20010;-61
2023/10/10 00:40:07;;;;;;;;;;;;;;;;;;5093161;28;19932;-63
2023/10/10 00:42:42;;;;;;;;;;;;;;;;;;5074609;28;19920;-61
2023/10/10 00:45:13;;;;;;;;;;;;;;;;;;5092826;28;20273;-62
2023/10/10 00:47:42;;;;;;;;;;;;;;;;;;5092582;28;20456;-61
2023/10/10 00:50:13;;;;;;;;;;;;;;;;;;5074406;28;19924;-62
2023/10/10 00:52:41;;;;;;;;;;;;;;;;;;5079375;28;19924;-62
2023/10/10 00:55:07;;;;;;;;;;;;;;;;;;5092634;28;20372;-62
2023/10/10 00:57:36;;;;;;;;;;;;;;;;;;5092635;28;19971;-61
2023/10/10 01:00:07;;;;;;;;;;;;;;;;;;5092588;28;19924;-61
2023/10/10 01:02:34;;;;;;;;;;;;;;;;;;5093007;28;20361;-62
2023/10/10 01:05:11;;;;;;;;;;;;;;;;;;5093224;28;19931;-62
2023/10/10 01:07:37;;;;;;;;;;;;;;;;;;5092483;28;20011;-62
2023/10/10 01:10:13;;;;;;;;;;;;;;;;;;5091919;28;20054;-62
2023/10/10 01:12:42;;;;;;;;;;;;;;;;;;5092145;28;19928;-60
2023/10/10 01:15:14;;;;;;;;;;;;;;;;;;5091956;28;19931;-61
2023/10/10 01:17:40;;;;;;;;;;;;;;;;;;5091782;28;19924;-60
2023/10/10 01:20:17;;;;;;;;;;;;;;;;;;5091824;28;20470;-60
2023/10/10 01:22:46;;;;;;;;;;;;;;;;;;5092062;28;20442;-61
2023/10/10 01:27:57;;;;;;;;;;;;;;;;;;5074186;28;19920;-61
2023/10/10 01:30:43;;;;;;;;;;;;;;;;;;5074429;28;20061;-61
2023/10/10 01:33:16;;;;;;;;;;;;;;;;;;5092422;28;19932;-61
2023/10/10 01:35:42;;;;;;;;;;;;;;;;;;5074556;28;19920;-61
2023/10/10 01:38:13;;;;;;;;;;;;;;;;;;5092546;28;19966;-61
2023/10/10 01:40:39;;;;;;;;;;;;;;;;;;5074546;28;20099;-61
2023/10/10 01:43:10;;;;;;;;;;;;;;;;;;5092393;28;19921;-62
2023/10/10 01:45:41;;;;;;;;;;;;;;;;;;5092542;28;19969;-61
2023/10/10 01:48:08;;;;;;;;;;;;;;;;;;5092323;28;19920;-61
2023/10/10 01:50:34;;;;;;;;;;;;;;;;;;5092152;28;20011;-60
2023/10/10 01:53:00;;;;;;;;;;;;;;;;;;5092487;28;20049;-61
2023/10/10 01:55:26;;;;;;;;;;;;;;;;;;5091138;28;20011;-60
2023/10/10 01:57:52;;;;;;;;;;;;;;;;;;5092298;28;20061;-61
2023/10/10 02:00:25;;;;;;;;;;;;;;;;;;5090641;28;19928;-61
2023/10/10 02:02:53;;;;;;;;;;;;;;;;;;5090764;28;19924;-60
2023/10/10 02:08:17;;;;;;;;;;;;;;;;;;5089949;28;20293;-61
2023/10/10 02:10:46;;;;;;;;;;;;;;;;;;5090193;28;19920;-61
2023/10/10 02:13:12;;;;;;;;;;;;;;;;;;5091314;28;20018;-61
2023/10/10 02:15:39;;;;;;;;;;;;;;;;;;5090918;28;20502;-62
2023/10/10 02:18:23;;;;;;;;;;;;;;;;;;5090837;28;19935;-61
2023/10/10 02:23:31;;;;;;;;;;;;;;;;;;5073085;28;19927;-61
2023/10/10 02:26:02;;;;;;;;;;;;;;;;;;5056297;28;19934;-61
2023/10/10 02:28:44;;;;;;;;;;;;;;;;;;5091076;28;19924;-61
2023/10/10 02:31:11;;;;;;;;;;;;;;;;;;5090848;28;20006;-61
2023/10/10 02:33:37;;;;;;;;;;;;;;;;;;5073406;28;19946;-61
2023/10/10 02:36:07;;;;;;;;;;;;;;;;;;5073459;28;19933;-61
2023/10/10 02:38:34;;;;;;;;;;;;;;;;;;5092116;28;19932;-61
2023/10/10 02:41:38;;;;;;;;;;;;;;;;;;5091876;28;19920;-62
2023/10/10 02:46:28;;;;;;;;;;;;;;;;;;5091719;28;20007;-61
2023/10/10 02:48:55;;;;;;;;;;;;;;;;;;5073566;28;19924;-61
2023/10/10 02:51:22;;;;;;;;;;;;;;;;;;5091807;28;19920;-61
2023/10/10 02:53:50;;;;;;;;;;;;;;;;;;5088365;28;20562;-61
2023/10/10 02:56:16;;;;;;;;;;;;;;;;;;5091633;28;19923;-61
2023/10/10 02:58:43;;;;;;;;;;;;;;;;;;5091919;28;19935;-61
2023/10/10 03:01:19;;;;;;;;;;;;;;;;;;5090192;28;19921;-61
2023/10/10 03:03:45;;;;;;;;;;;;;;;;;;5091831;28;19942;-61
2023/10/10 03:06:11;;;;;;;;;;;;;;;;;;5091696;28;19920;-61
2023/10/10 03:08:51;;;;;;;;;;;;;;;;;;5091550;28;19921;-61
2023/10/10 03:11:36;;;;;;;;;;;;;;;;;;5091762;28;19964;-62
2023/10/10 03:14:07;;;;;;;;;;;;;;;;;;5090574;28;20262;-61
2023/10/10 03:16:45;;;;;;;;;;;;;;;;;;5091519;28;20011;-60
2023/10/10 03:29:20;;;;;;;;;;;;;;;;;;5073192;28;19927;-61
2023/10/10 03:31:48;;;;;;;;;;;;;;;;;;5092035;28;19924;-61
2023/10/10 03:37:04;;;;;;;;;;;;;;;;;;5094659;28;19920;-61
2023/10/10 05:24:00;;;;;;;;;;;;;;;;;;5092881;28;19920;-61
2023/10/10 05:26:30;;;;;;;;;;;;;;;;;;5092824;28;20007;-61
2023/10/10 05:28:57;;;;;;;;;;;;;;;;;;5092574;28;20358;-61
2023/10/10 05:31:23;;;;;;;;;;;;;;;;;;5092691;28;20408;-61
2023/10/10 05:33:50;;;;;;;;;;;;;;;;;;5092428;28;19924;-62
2023/10/10 05:36:18;;;;;;;;;;;;;;;;;;5092774;28;19920;-61
2023/10/10 05:38:45;;;;;;;;;;;;;;;;;;5074487;28;20022;-61
2023/10/10 05:41:12;;;;;;;;;;;;;;;;;;5092780;28;19924;-61
2023/10/10 05:43:39;;;;;;;;;;;;;;;;;;5092589;28;20002;-61
2023/10/10 05:46:05;;;;;;;;;;;;;;;;;;5092400;28;19931;-61
2023/10/10 05:48:31;;;;;;;;;;;;;;;;;;5092329;28;19920;-61
2023/10/10 05:50:57;;;;;;;;;;;;;;;;;;5092284;28;19940;-60
2023/10/10 05:53:24;;;;;;;;;;;;;;;;;;5085040;28;19928;-61
2023/10/10 05:55:53;;;;;;;;;;;;;;;;;;5089966;28;19919;-61
2023/10/10 05:58:19;;;;;;;;;;;;;;;;;;5091933;28;19955;-61
2023/10/10 06:00:48;;;;;;;;;;;;;;;;;;5091510;28;19978;-61
2023/10/10 06:03:16;;;;;;;;;;;;;;;;;;5091596;28;19968;-61
2023/10/10 06:05:45;;;;;;;;;;;;;;;;;;5090453;28;20304;-61
2023/10/10 06:08:11;;;;;;;;;;;;;;;;;;5092147;28;19926;-61
2023/10/10 06:10:37;;;;;;;;;;;;;;;;;;5091798;28;19919;-61
2023/10/10 06:13:06;;;;;;;;;;;;;;;;;;5092174;28;19928;-61
2023/10/10 06:15:35;;;;;;;;;;;;;;;;;;5084112;28;19920;-61
2023/10/10 06:18:08;;;;;;;;;;;;;;;;;;5069010;28;20331;-61
2023/10/10 06:20:34;;;;;;;;;;;;;;;;;;5091986;28;19928;-61
2023/10/10 06:23:01;;;;;;;;;;;;;;;;;;5091926;28;19920;-61
2023/10/10 06:25:29;;;;;;;;;;;;;;;;;;5091842;28;20011;-61
2023/10/10 06:27:54;;;;;;;;;;;;;;;;;;5091914;28;20392;-61
2023/10/10 06:30:20;;;;;;;;;;;;;;;;;;5091942;28;19962;-61
2023/10/10 06:32:49;;;;;;;;;;;;;;;;;;5073746;28;19924;-61
2023/10/10 06:37:41;;;;;;;;;;;;;;;;;;5091738;28;19931;-62
2023/10/10 06:40:08;;;;;;;;;;;;;;;;;;5073588;28;19924;-61
2023/10/10 06:42:34;;;;;;;;;;;;;;;;;;5091891;28;19931;-61
2023/10/10 06:45:07;;;;;;;;;;;;;;;;;;5073411;28;19924;-61
2023/10/10 06:47:33;;;;;;;;;;;;;;;;;;5091697;28;19938;-61
2023/10/10 06:50:00;;;;;;;;;;;;;;;;;;5091749;28;19923;-61
2023/10/10 06:52:27;;;;;;;;;;;;;;;;;;5073736;28;19927;-61
2023/10/10 06:54:56;;;;;;;;;;;;;;;;;;5073356;28;19924;-61
2023/10/10 06:57:35;;;;;;;;;;;;;;;;;;5091794;28;19926;-61
2023/10/10 07:00:01;;;;;;;;;;;;;;;;;;5073396;28;20019;-61
2023/10/10 07:02:27;;;;;;;;;;;;;;;;;;5073312;28;20062;-61
2023/10/10 07:04:53;;;;;;;;;;;;;;;;;;5091785;28;19963;-62
2023/10/10 07:07:19;;;;;;;;;;;;;;;;;;5094620;28;19920;-60
2023/10/10 07:09:45;;;;;;;;;;;;;;;;;;5095146;28;20065;-60
2023/10/10 07:12:11;;;;;;;;;;;;;;;;;;5095406;28;20321;-61
2023/10/10 07:14:47;;;;;;;;;;;;;;;;;;5095392;28;19920;-61
2023/10/10 07:17:13;;;;;;;;;;;;;;;;;;5094928;28;19931;-60
2023/10/10 07:20:54;;;;;;;;;;;;;;;;;;5095177;28;20441;-61
2023/10/10 07:22:24;;;;;;;;;;;;;;;;;;5094832;28;20019;-60
2023/10/10 07:24:55;;;;;;;;;;;;;;;;;;5076676;28;20049;-61
2023/10/10 07:27:29;;;;;;;;;;;;;;;;;;5095135;28;19920;-61
2023/10/10 07:32:28;;;;;;;;;;;;;;;;;;5095072;28;20346;-61
2023/10/10 07:34:54;;;;;;;;;;;;;;;;;;5076724;28;19931;-61
2023/10/10 07:37:22;;;;;;;;;;;;;;;;;;5094924;28;19956;-60
2023/10/10 07:40:18;;;;;;;;;;;;;;;;;;5094886;28;19924;-61
2023/10/10 07:42:58;;;;;;;;;;;;;;;;;;5094400;28;19923;-60
2023/10/10 07:45:29;;;;;;;;;;;;;;;;;;5094938;28;19931;-61
2023/10/10 07:50:26;;;;;;;;;;;;;;;;;;5094713;28;20355;-60
2023/10/10 07:52:52;;;;;;;;;;;;;;;;;;5094431;28;19927;-61
2023/10/10 07:55:18;;;;;;;;;;;;;;;;;;5094413;28;19924;-61
2023/10/10 07:57:59;;;;;;;;;;;;;;;;;;5076129;28;20285;-64
2023/10/10 08:00:35;;;;;;;;;;;;;;;;;;5094448;28;19925;-61
2023/10/10 08:03:00;;;;;;;;;;;;;;;;;;5094152;28;19920;-61
2023/10/10 08:05:29;;;;;;;;;;;;;;;;;;5075246;28;19954;-60
2023/10/10 08:07:55;;;;;;;;;;;;;;;;;;5093341;28;20027;-61
2023/10/10 08:10:35;;;;;;;;;;;;;;;;;;5058729;28;20413;-61
2023/10/10 08:13:00;;;;;;;;;;;;;;;;;;5093155;28;19947;-61
2023/10/10 08:15:26;;;;;;;;;;;;;;;;;;5093233;28;19920;-61
2023/10/10 08:17:53;;;;;;;;;;;;;;;;;;5073721;28;19924;-61
2023/10/10 08:21:07;;;;;;;;;;;;;;;;;;5058234;28;20437;-61
2023/10/10 08:23:24;;;;;;;;;;;;;;;;;;5092677;28;19931;-61
2023/10/10 08:25:50;;;;;;;;;;;;;;;;;;5093006;28;19920;-61
2023/10/10 08:28:16;;;;;;;;;;;;;;;;;;5093061;28;19935;-61
2023/10/10 08:30:42;;;;;;;;;;;;;;;;;;5074600;28;20270;-61
2023/10/10 08:33:07;;;;;;;;;;;;;;;;;;5093237;28;19924;-61
2023/10/10 08:35:38;;;;;;;;;;;;;;;;;;5093630;28;19970;-61
2023/10/10 08:38:04;;;;;;;;;;;;;;;;;;5093708;28;19928;-61
2023/10/10 08:40:30;;;;;;;;;;;;;;;;;;5075462;28;20431;-61
2023/10/10 08:42:56;;;;;;;;;;;;;;;;;;5093534;28;19931;-61
2023/10/10 08:45:22;;;;;;;;;;;;;;;;;;5075321;28;20413;-61
2023/10/10 08:47:48;;;;;;;;;;;;;;;;;;5093513;28;19934;-61
2023/10/10 08:50:14;;;;;;;;;;;;;;;;;;5093671;28;19924;-61
2023/10/10 08:52:41;;;;;;;;;;;;;;;;;;5093500;28;19935;-61
2023/10/10 08:55:10;;;;;;;;;;;;;;;;;;5093361;28;19920;-61
2023/10/10 08:57:38;;;;;;;;;;;;;;;;;;5093398;28;19927;-61
2023/10/10 09:00:06;;;;;;;;;;;;;;;;;;5093116;28;19928;-61
2023/10/10 09:02:33;;;;;;;;;;;;;;;;;;5093311;28;19920;-61
2023/10/10 09:04:59;;;;;;;;;;;;;;;;;;5093422;28;20060;-61
2023/10/10 09:07:30;;;;;;;;;;;;;;;;;;5074915;28;20019;-61
2023/10/10 09:10:04;;;;;;;;;;;;;;;;;;5092949;28;19920;-62
2023/10/10 09:12:32;;;;;;;;;;;;;;;;;;5074641;28;19924;-61
2023/10/10 09:14:58;;;;;;;;;;;;;;;;;;5093216;28;19920;-61
2023/10/10 09:17:45;;;;;;;;;;;;;;;;;;5092868;28;19924;-61
2023/10/10 09:20:17;;;;;;;;;;;;;;;;;;5093179;28;19928;-61
2023/10/10 09:22:44;;;;;;;;;;;;;;;;;;5074429;28;19924;-61
2023/10/10 09:25:18;;;;;;;;;;;;;;;;;;5083871;22;20396;-66
2023/10/10 09:27:44;;;;;;;;;;;;;;;;;;5073185;28;19920;-67
2023/10/10 09:30:10;;;;;;;;;;;;;;;;;;5037832;28;20441;-67
2023/10/10 09:32:42;;;;;;;;;;;;;;;;;;5072811;28;20069;-67
2023/10/10 09:35:08;;;;;;;;;;;;;;;;;;5072528;28;20347;-67
2023/10/10 09:37:35;;;;;;;;;;;;;;;;;;5072175;28;19936;-66
2023/10/10 09:40:04;;;;;;;;;;;;;;;;;;5072405;28;19921;-66
2023/10/10 09:43:03;;;;;;;;;;;;;;;;;;5072488;28;20350;-66
2023/10/10 09:45:18;;;;;;;;;;;;;;;;;;5071732;28;19963;-66
2023/10/10 09:47:55;;;;;;;;;;;;;;;;;;5054170;28;19924;-66
2023/10/10 09:52:59;;;;;;;;;;;;;;;;;;5069057;28;19927;-67
2023/10/10 10:00:45;;;;;;;;;;;;;;;;;;5072095;28;19970;-67
2023/10/10 10:03:31;;;;;;;;;;;;;;;;;;5071146;28;21466;-67
2023/10/10 10:06:00;;;;;;;;;;;;;;;;;;5053227;28;19920;-66
2023/10/10 10:08:37;;;;;;;;;;;;;;;;;;5071165;28;19942;-67
2023/10/10 10:11:11;;;;;;;;;;;;;;;;;;5071641;28;19924;-66
2023/10/10 10:13:37;;;;;;;;;;;;;;;;;;5052757;28;19924;-66
2023/10/10 10:16:08;;;;;;;;;;;;;;;;;;5070797;28;19970;-66
2023/10/10 10:18:44;;;;;;;;;;;;;;;;;;5090457;28;19931;-66
2023/10/10 10:21:18;;;;;;;;;;;;;;;;;;5090975;28;19920;-67
2023/10/10 10:23:47;;;;;;;;;;;;;;;;;;5090737;28;20019;-66
2023/10/10 10:26:22;;;;;;;;;;;;;;;;;;5072852;28;19927;-67
2023/10/10 10:28:56;;;;;;;;;;;;;;;;;;5091027;28;20373;-67
2023/10/10 10:31:28;;;;;;;;;;;;;;;;;;5092090;28;20011;-66
2023/10/10 10:33:54;;;;;;;;;;;;;;;;;;5073258;28;19920;-67
2023/10/10 10:36:26;;;;;;;;;;;;;;;;;;5071736;28;20396;-66
2023/10/10 10:41:48;;;;;;;;;;;;;;;;;;5055811;28;19921;-67
2023/10/10 10:44:14;;;;;;;;;;;;;;;;;;5075469;28;20011;-67
2023/10/10 10:46:48;;;;;;;;;;;;;;;;;;5075811;28;20274;-66
2023/10/10 10:49:14;;;;;;;;;;;;;;;;;;5057501;28;19930;-67
2023/10/10 10:51:42;;;;;;;;;;;;;;;;;;5075693;28;19928;-67
2023/10/10 10:54:09;;;;;;;;;;;;;;;;;;5075420;28;19921;-67
2023/10/10 10:59:13;;;;;;;;;;;;;;;;;;5075447;28;19931;-67
2023/10/10 11:01:42;;;;;;;;;;;;;;;;;;5057385;28;19946;-66
2023/10/10 11:04:14;;;;;;;;;;;;;;;;;;5057175;28;19920;-66
2023/10/10 11:06:40;;;;;;;;;;;;;;;;;;5075296;28;20378;-66
2023/10/10 11:09:09;;;;;;;;;;;;;;;;;;5075036;28;19925;-66
2023/10/10 11:11:36;;;;;;;;;;;;;;;;;;5075068;28;19921;-67
2023/10/10 11:16:46;;;;;;;;;;;;;;;;;;5094538;28;19924;-66
2023/10/10 11:21:48;;;;;;;;;;;;;;;;;;5095036;28;19951;-66
2023/10/10 11:24:15;;;;;;;;;;;;;;;;;;5094997;28;19931;-66
2023/10/10 11:26:49;;;;;;;;;;;;;;;;;;5094999;28;19963;-66
2023/10/10 11:29:20;;;;;;;;;;;;;;;;;;5076725;28;19998;-67
2023/10/10 11:31:48;;;;;;;;;;;;;;;;;;5060040;28;19924;-66
2023/10/10 11:34:33;;;;;;;;;;;;;;;;;;5094885;28;20041;-67
2023/10/10 11:37:05;;;;;;;;;;;;;;;;;;5094922;28;19924;-67
2023/10/10 11:39:31;;;;;;;;;;;;;;;;;;5095124;28;20015;-67
2023/10/10 11:42:08;;;;;;;;;;;;;;;;;;5076622;28;19924;-67
2023/10/10 11:44:44;;;;;;;;;;;;;;;;;;5074741;28;19924;-67
2023/10/10 11:47:24;;;;;;;;;;;;;;;;;;5074246;28;19920;-66
2023/10/10 11:49:50;;;;;;;;;;;;;;;;;;5074506;28;19925;-67
2023/10/10 11:52:19;;;;;;;;;;;;;;;;;;5078375;28;19989;-67
2023/10/10 11:54:44;;;;;;;;;;;;;;;;;;5094576;28;19923;-67
2023/10/10 11:57:15;;;;;;;;;;;;;;;;;;5094581;28;19928;-67
2023/10/10 11:59:51;;;;;;;;;;;;;;;;;;5094477;28;19989;-67
2023/10/10 12:02:18;;;;;;;;;;;;;;;;;;5094255;28;20029;-67
2023/10/10 12:04:47;;;;;;;;;;;;;;;;;;5094311;28;20357;-67
2023/10/10 12:07:14;;;;;;;;;;;;;;;;;;5094230;28;20019;-67
2023/10/10 12:09:45;;;;;;;;;;;;;;;;;;5094521;28;19949;-68
2023/10/10 12:12:11;;;;;;;;;;;;;;;;;;5094306;28;19920;-68
2023/10/10 12:14:36;;;;;;;;;;;;;;;;;;5094334;28;20361;-68
2023/10/10 12:17:14;;;;;;;;;;;;;;;;;;5093968;28;19924;-67
2023/10/10 12:19:49;;;;;;;;;;;;;;;;;;5093993;28;20389;-67
2023/10/10 12:22:17;;;;;;;;;;;;;;;;;;5094164;28;19930;-67
2023/10/10 12:24:43;;;;;;;;;;;;;;;;;;5058766;28;20414;-68
2023/10/10 12:27:09;;;;;;;;;;;;;;;;;;5093980;28;20011;-67
2023/10/10 12:29:39;;;;;;;;;;;;;;;;;;5093903;28;19930;-68
2023/10/10 12:32:14;;;;;;;;;;;;;;;;;;5093970;28;20002;-67
2023/10/10 12:34:41;;;;;;;;;;;;;;;;;;5093694;28;19931;-67
2023/10/10 12:37:07;;;;;;;;;;;;;;;;;;5093446;28;20435;-67
2023/10/10 12:39:33;;;;;;;;;;;;;;;;;;5093831;28;20010;-67
2023/10/10 12:41:59;;;;;;;;;;;;;;;;;;5093524;28;19977;-67
2023/10/10 12:44:25;;;;;;;;;;;;;;;;;;5093808;28;19950;-67
2023/10/10 12:46:59;;;;;;;;;;;;;;;;;;5093438;28;19920;-68
2023/10/10 12:49:36;;;;;;;;;;;;;;;;;;5093653;28;19930;-67
2023/10/10 12:52:02;;;;;;;;;;;;;;;;;;5093289;28;20422;-67
2023/10/10 12:54:34;;;;;;;;;;;;;;;;;;5093382;28;19920;-67
2023/10/10 12:57:05;;;;;;;;;;;;;;;;;;5093294;28;19928;-67
2023/10/10 12:59:32;;;;;;;;;;;;;;;;;;5093288;28;19930;-67
2023/10/10 13:02:00;;;;;;;;;;;;;;;;;;5093392;28;19989;-67
2023/10/10 13:04:31;;;;;;;;;;;;;;;;;;5093029;28;19966;-67
2023/10/10 13:07:02;;;;;;;;;;;;;;;;;;5093230;28;20024;-67
2023/10/10 13:09:28;;;;;;;;;;;;;;;;;;5093288;28;19965;-67
2023/10/10 13:11:56;;;;;;;;;;;;;;;;;;5093146;28;19924;-67
2023/10/10 13:14:24;;;;;;;;;;;;;;;;;;5093015;28;19971;-67
2023/10/10 13:19:20;;;;;;;;;;;;;;;;;;5093102;28;19927;-68
2023/10/10 13:21:52;;;;;;;;;;;;;;;;;;5092920;28;19920;-67
2023/10/10 13:24:18;;;;;;;;;;;;;;;;;;5074379;28;20365;-67
2023/10/10 13:26:45;;;;;;;;;;;;;;;;;;5092735;28;20333;-67
2023/10/10 13:29:11;;;;;;;;;;;;;;;;;;5074744;28;20036;-67
2023/10/10 13:31:38;;;;;;;;;;;;;;;;;;5092663;28;19920;-67
2023/10/10 13:34:04;;;;;;;;;;;;;;;;;;5092676;28;19980;-67
2023/10/10 13:36:32;;;;;;;;;;;;;;;;;;5092645;28;19924;-67
2023/10/10 13:38:59;;;;;;;;;;;;;;;;;;5092051;28;19924;-67
2023/10/10 13:41:27;;;;;;;;;;;;;;;;;;5092408;28;20377;-68
2023/10/10 13:43:53;;;;;;;;;;;;;;;;;;5092337;28;20372;-67
2023/10/10 13:46:19;;;;;;;;;;;;;;;;;;5092706;28;19920;-65
2023/10/10 13:48:45;;;;;;;;;;;;;;;;;;5092419;28;19931;-65
2023/10/10 13:51:13;;;;;;;;;;;;;;;;;;5092353;28;19924;-66
2023/10/10 13:53:40;;;;;;;;;;;;;;;;;;5092377;28;20007;-66
2023/10/10 13:56:06;;;;;;;;;;;;;;;;;;5091068;28;19952;-66
2023/10/10 13:58:32;;;;;;;;;;;;;;;;;;5075120;28;19983;-67
2023/10/10 14:03:45;;;;;;;;;;;;;;;;;;5071832;28;20385;-66
2023/10/10 14:06:12;;;;;;;;;;;;;;;;;;5071954;28;19920;-67
2023/10/10 14:08:43;;;;;;;;;;;;;;;;;;5071990;28;19920;-66
2023/10/10 14:11:09;;;;;;;;;;;;;;;;;;5072131;28;19946;-68
2023/10/10 14:13:35;;;;;;;;;;;;;;;;;;5071828;28;19929;-67
2023/10/10 14:16:01;;;;;;;;;;;;;;;;;;5071096;28;19990;-67
2023/10/10 14:18:27;;;;;;;;;;;;;;;;;;5090603;28;19928;-67
2023/10/10 14:20:53;;;;;;;;;;;;;;;;;;5092048;28;19920;-67
2023/10/10 14:23:19;;;;;;;;;;;;;;;;;;5091875;28;19970;-66
2023/10/10 14:25:47;;;;;;;;;;;;;;;;;;5092168;28;19928;-66
2023/10/10 14:28:16;;;;;;;;;;;;;;;;;;5091914;28;19973;-67
2023/10/10 14:30:42;;;;;;;;;;;;;;;;;;5091801;28;19924;-67
2023/10/10 14:33:08;;;;;;;;;;;;;;;;;;5073795;28;19920;-67
2023/10/10 14:35:34;;;;;;;;;;;;;;;;;;5091463;28;19927;-67
2023/10/10 14:38:01;;;;;;;;;;;;;;;;;;5091750;28;19928;-66
2023/10/10 14:40:27;;;;;;;;;;;;;;;;;;5091668;28;19920;-67
2023/10/10 14:42:53;;;;;;;;;;;;;;;;;;5056693;28;20382;-67
2023/10/10 14:45:19;;;;;;;;;;;;;;;;;;5091642;28;19924;-66
2023/10/10 14:47:45;;;;;;;;;;;;;;;;;;5090955;28;20609;-66
2023/10/10 14:50:12;;;;;;;;;;;;;;;;;;5090640;28;19927;-67
2023/10/10 14:52:47;;;;;;;;;;;;;;;;;;5090966;28;19935;-67
2023/10/10 14:55:23;;;;;;;;;;;;;;;;;;5091154;28;19920;-67
2023/10/10 14:57:49;;;;;;;;;;;;;;;;;;5090734;28;19924;-67
2023/10/10 15:00:18;;;;;;;;;;;;;;;;;;5090616;28;19982;-66
2023/10/10 15:02:45;;;;;;;;;;;;;;;;;;5090769;28;20003;-67
2023/10/10 15:05:11;;;;;;;;;;;;;;;;;;5072341;28;19924;-68
2023/10/10 15:07:41;;;;;;;;;;;;;;;;;;5090701;28;20341;-68
2023/10/10 15:10:07;;;;;;;;;;;;;;;;;;5090377;28;20492;-67
2023/10/10 15:12:34;;;;;;;;;;;;;;;;;;5090278;28;19973;-67
2023/10/10 15:15:00;;;;;;;;;;;;;;;;;;5090234;28;19931;-67
2023/10/10 15:17:27;;;;;;;;;;;;;;;;;;5090210;28;20385;-67
2023/10/10 15:19:52;;;;;;;;;;;;;;;;;;5090361;28;20029;-67
2023/10/10 15:22:18;;;;;;;;;;;;;;;;;;5090432;28;20389;-67
2023/10/10 15:24:50;;;;;;;;;;;;;;;;;;5090027;28;19924;-67
2023/10/10 15:27:17;;;;;;;;;;;;;;;;;;5091884;28;19942;-67
2023/10/10 15:29:43;;;;;;;;;;;;;;;;;;5094791;28;19924;-67
2023/10/10 15:32:09;;;;;;;;;;;;;;;;;;5076610;28;20003;-67
2023/10/10 15:34:35;;;;;;;;;;;;;;;;;;5094854;28;19930;-67
2023/10/10 15:37:09;;;;;;;;;;;;;;;;;;5076437;28;19924;-67
2023/10/10 15:39:38;;;;;;;;;;;;;;;;;;5076492;28;19924;-67
2023/10/10 15:42:04;;;;;;;;;;;;;;;;;;5094463;28;20400;-67
2023/10/10 15:44:30;;;;;;;;;;;;;;;;;;5094865;28;20014;-66
2023/10/10 15:46:58;;;;;;;;;;;;;;;;;;5094731;28;20121;-66
2023/10/10 15:49:25;;;;;;;;;;;;;;;;;;5094383;28;20255;-66
2023/10/10 15:51:52;;;;;;;;;;;;;;;;;;5094493;28;19924;-67
2023/10/10 15:54:19;;;;;;;;;;;;;;;;;;5094579;28;19942;-66
2023/10/10 15:56:47;;;;;;;;;;;;;;;;;;5094364;28;19920;-66
2023/10/10 15:59:14;;;;;;;;;;;;;;;;;;5094450;28;20265;-66
2023/10/10 16:01:46;;;;;;;;;;;;;;;;;;5094476;28;19923;-66
2023/10/10 16:04:12;;;;;;;;;;;;;;;;;;5094484;28;19924;-66
2023/10/10 16:06:38;;;;;;;;;;;;;;;;;;5094379;28;19965;-66
2023/10/10 16:11:52;;;;;;;;;;;;;;;;;;5094244;28;19923;-66
2023/10/10 16:14:18;;;;;;;;;;;;;;;;;;5094374;28;19973;-66
2023/10/10 16:16:45;;;;;;;;;;;;;;;;;;5075893;28;19924;-66
2023/10/10 16:19:11;;;;;;;;;;;;;;;;;;5094203;28;19960;-67
2023/10/10 16:21:38;;;;;;;;;;;;;;;;;;5094053;28;19920;-67
2023/10/10 16:24:04;;;;;;;;;;;;;;;;;;5093655;28;19927;-67
2023/10/10 16:26:30;;;;;;;;;;;;;;;;;;5075649;28;19921;-67
2023/10/10 16:28:56;;;;;;;;;;;;;;;;;;5093767;28;19997;-67
2023/10/10 16:31:29;;;;;;;;;;;;;;;;;;5093926;28;19924;-67
2023/10/10 16:33:55;;;;;;;;;;;;;;;;;;5094011;28;19939;-67
2023/10/10 16:36:21;;;;;;;;;;;;;;;;;;5093714;28;19930;-67
2023/10/10 16:38:49;;;;;;;;;;;;;;;;;;5093069;28;20371;-66
2023/10/10 16:41:15;;;;;;;;;;;;;;;;;;5075274;28;19963;-67
2023/10/10 16:43:41;;;;;;;;;;;;;;;;;;5093570;28;19959;-67
2023/10/10 16:46:09;;;;;;;;;;;;;;;;;;5093592;28;19986;-66
2023/10/10 16:48:38;;;;;;;;;;;;;;;;;;5093340;28;19927;-67
2023/10/10 16:51:04;;;;;;;;;;;;;;;;;;5093447;28;19950;-67
2023/10/10 16:53:30;;;;;;;;;;;;;;;;;;5093497;28;19920;-67
2023/10/10 16:55:56;;;;;;;;;;;;;;;;;;5075070;28;19920;-66
2023/10/10 16:58:22;;;;;;;;;;;;;;;;;;5093250;28;19962;-67
2023/10/10 17:00:48;;;;;;;;;;;;;;;;;;5093285;28;19924;-67
2023/10/10 17:03:14;;;;;;;;;;;;;;;;;;5075091;28;19920;-67
2023/10/10 17:05:40;;;;;;;;;;;;;;;;;;5093311;28;20595;-66
2023/10/10 17:08:06;;;;;;;;;;;;;;;;;;5093407;28;20289;-66
2023/10/10 17:10:32;;;;;;;;;;;;;;;;;;5075001;28;19920;-65
2023/10/10 17:13:00;;;;;;;;;;;;;;;;;;5074857;28;19926;-66
2023/10/10 17:15:26;;;;;;;;;;;;;;;;;;5074848;28;20399;-65
2023/10/10 17:17:52;;;;;;;;;;;;;;;;;;5092977;28;19993;-66
2023/10/10 17:20:18;;;;;;;;;;;;;;;;;;5093101;28;19930;-65
2023/10/10 17:22:44;;;;;;;;;;;;;;;;;;5093055;28;19920;-67
2023/10/10 17:25:09;;;;;;;;;;;;;;;;;;5092694;28;19993;-67
2023/10/10 17:27:37;;;;;;;;;;;;;;;;;;5093038;28;20294;-66
2023/10/10 17:30:04;;;;;;;;;;;;;;;;;;5074390;28;19927;-67
2023/10/10 17:32:30;;;;;;;;;;;;;;;;;;5074406;28;19934;-67
2023/10/10 17:35:02;;;;;;;;;;;;;;;;;;5092893;28;19947;-67
2023/10/10 17:37:28;;;;;;;;;;;;;;;;;;5092481;28;20353;-66
2023/10/10 17:39:54;;;;;;;;;;;;;;;;;;5092766;28;19930;-65
2023/10/10 17:42:23;;;;;;;;;;;;;;;;;;5074465;28;19947;-66
2023/10/10 17:44:49;;;;;;;;;;;;;;;;;;5074054;28;19927;-66
2023/10/10 17:47:15;;;;;;;;;;;;;;;;;;5092431;28;20332;-66
2023/10/10 17:49:41;;;;;;;;;;;;;;;;;;5092307;28;19924;-66
2023/10/10 17:52:07;;;;;;;;;;;;;;;;;;5091816;28;19920;-66
2023/10/10 17:54:33;;;;;;;;;;;;;;;;;;5092428;28;20713;-67
2023/10/10 17:57:00;;;;;;;;;;;;;;;;;;5092164;28;19928;-66
2023/10/10 17:59:26;;;;;;;;;;;;;;;;;;5092541;28;19924;-67
2023/10/10 18:01:55;;;;;;;;;;;;;;;;;;5073948;28;19954;-65
2023/10/10 18:04:21;;;;;;;;;;;;;;;;;;5092423;28;19924;-64
2023/10/10 18:06:48;;;;;;;;;;;;;;;;;;5074129;28;19920;-64
2023/10/10 18:09:17;;;;;;;;;;;;;;;;;;5074269;28;20065;-64
2023/10/10 18:11:42;;;;;;;;;;;;;;;;;;5092368;28;20003;-66
2023/10/10 18:14:08;;;;;;;;;;;;;;;;;;5092045;28;20116;-67
2023/10/10 18:16:34;;;;;;;;;;;;;;;;;;5073669;28;19920;-66
2023/10/10 18:19:00;;;;;;;;;;;;;;;;;;5092302;28;19966;-67
2023/10/10 18:21:26;;;;;;;;;;;;;;;;;;5092309;28;20293;-67
2023/10/10 18:23:52;;;;;;;;;;;;;;;;;;5091936;28;19924;-65
2023/10/10 18:26:20;;;;;;;;;;;;;;;;;;5092049;28;19974;-67
2023/10/10 18:28:46;;;;;;;;;;;;;;;;;;5091872;28;19920;-66
2023/10/10 18:31:12;;;;;;;;;;;;;;;;;;5078633;28;20425;-67
2023/10/10 18:33:38;;;;;;;;;;;;;;;;;;5071967;28;19924;-66
2023/10/10 18:36:04;;;;;;;;;;;;;;;;;;5071747;28;19974;-66
2023/10/10 18:38:33;;;;;;;;;;;;;;;;;;5053659;28;19926;-66
2023/10/10 18:40:59;;;;;;;;;;;;;;;;;;5053715;28;20529;-67
2023/10/10 18:43:25;;;;;;;;;;;;;;;;;;5053457;28;20011;-67
2023/10/10 18:45:53;;;;;;;;;;;;;;;;;;5071805;28;20011;-67
2023/10/10 18:48:19;;;;;;;;;;;;;;;;;;5053654;28;19927;-66
2023/10/10 18:50:45;;;;;;;;;;;;;;;;;;5071531;28;20341;-66
2023/10/10 18:53:11;;;;;;;;;;;;;;;;;;5083837;28;19924;-66
2023/10/10 18:55:37;;;;;;;;;;;;;;;;;;5091820;28;19945;-67
2023/10/10 18:58:04;;;;;;;;;;;;;;;;;;5091842;28;20007;-67
2023/10/10 19:00:30;;;;;;;;;;;;;;;;;;5091914;28;19972;-66
2023/10/10 19:02:56;;;;;;;;;;;;;;;;;;5094441;28;19920;-66
2023/10/10 19:05:26;;;;;;;;;;;;;;;;;;5094331;28;20275;-67
2023/10/10 19:07:51;;;;;;;;;;;;;;;;;;5095611;28;19920;-66
2023/10/10 19:10:17;;;;;;;;;;;;;;;;;;5094303;28;20369;-66
2023/10/10 19:12:43;;;;;;;;;;;;;;;;;;5095543;28;19920;-67
2023/10/10 19:15:12;;;;;;;;;;;;;;;;;;5095704;28;19924;-66
2023/10/10 19:17:39;;;;;;;;;;;;;;;;;;5085095;28;19950;-66
2023/10/10 19:20:06;;;;;;;;;;;;;;;;;;5095541;28;19982;-66
2023/10/10 19:22:34;;;;;;;;;;;;;;;;;;5095352;28;19920;-67
2023/10/10 19:25:00;;;;;;;;;;;;;;;;;;5095041;28;19928;-66
2023/10/10 19:27:26;;;;;;;;;;;;;;;;;;5060294;28;19920;-67
2023/10/10 19:29:52;;;;;;;;;;;;;;;;;;5095267;28;19924;-66
2023/10/10 19:32:18;;;;;;;;;;;;;;;;;;5095205;28;19920;-66
2023/10/10 19:34:44;;;;;;;;;;;;;;;;;;5095281;28;20246;-67
2023/10/10 19:37:10;;;;;;;;;;;;;;;;;;5076617;28;20027;-67